Bowman Field Louisville US
ICAO: KLOU
IATA: LOU
Category: Medium
Scheduled Services: No

Elevation: 546 ft
TransAlt. 18000 ft.

Airport Communications:
LOUISVILLE APP/DEP:123.675
ATIS:112.2
CLNC DEL:118.9
CTAF:119.5
GND:121.8
LOUISVILLE RDO:122.2
TWR:119.5
UNICOM:122.95

KLOU Zoom In..

If you have problems with the map follow the link
https://www.worldairports.se/pages/airport.php?
ICAO=KLOU

Runways:

(A) RW 06 length 4358 ft width 75 ft
---- / hdg 64

(B) RW 15 length 3580 ft width 75 ft
---- / hdg 147

(C) RW 24 length 4358 ft width 75 ft
---- / hdg 244

(D) RW 33 length 3580 ft width 75 ft
---- / hdg 327

Location; KLOU
Day. 14 / Time. 10.53 Zulu
* Altimeter: 30.50
* Temperature: -02° c. -28.4°f.
* Wind from: 020° Speed 07 kn.
Dewpoint: -08° c.
Visibility: 9 Statute Miles.
Clouds: Clear (automated report).

KLOU 141053Z AUTO 02007KT 9SM CLR M02/M08 A3050 RMK AO2 SLP331 T10221078


Wind From 020°
Speed 07 kn.

 
 
jpsmedia.com for Web Design worldairports.se 2018   terms of use